sensor_id;sensor_type;location;lat;lon;timestamp;pressure;altitude;pressure_sealevel;temperature;humidity
12182;BME280;6154;51.550;12.138;2023-03-03T00:00:31;101227.44;;;5.96;60.89
12182;BME280;6154;51.550;12.138;2023-03-03T00:03:03;101229.94;;;6.02;60.58
12182;BME280;6154;51.550;12.138;2023-03-03T00:05:33;101235.31;;;5.96;61.55
12182;BME280;6154;51.550;12.138;2023-03-03T00:08:03;101230.34;;;5.83;62.73
12182;BME280;6154;51.550;12.138;2023-03-03T00:10:31;101230.91;;;5.97;61.55
12182;BME280;6154;51.550;12.138;2023-03-03T00:13:00;101218.00;;;5.86;62.13
12182;BME280;6154;51.550;12.138;2023-03-03T00:15:29;101223.94;;;5.96;61.19
12182;BME280;6154;51.550;12.138;2023-03-03T00:18:12;101220.31;;;6.00;60.60
12182;BME280;6154;51.550;12.138;2023-03-03T00:20:48;101217.66;;;6.03;60.66
12182;BME280;6154;51.550;12.138;2023-03-03T00:23:24;101219.84;;;5.81;61.90
12182;BME280;6154;51.550;12.138;2023-03-03T00:25:53;101229.59;;;5.76;62.24
12182;BME280;6154;51.550;12.138;2023-03-03T00:28:24;101222.50;;;5.80;61.91
12182;BME280;6154;51.550;12.138;2023-03-03T00:30:55;101229.25;;;5.53;63.56
12182;BME280;6154;51.550;12.138;2023-03-03T00:33:26;101231.44;;;5.72;62.28
12182;BME280;6154;51.550;12.138;2023-03-03T00:35:55;101229.50;;;5.81;61.58
12182;BME280;6154;51.550;12.138;2023-03-03T00:38:25;101229.78;;;5.68;62.41
12182;BME280;6154;51.550;12.138;2023-03-03T00:40:54;101231.16;;;5.44;63.96
12182;BME280;6154;51.550;12.138;2023-03-03T00:43:24;101235.66;;;5.80;61.66
12182;BME280;6154;51.550;12.138;2023-03-03T00:45:55;101231.16;;;5.85;61.36
12182;BME280;6154;51.550;12.138;2023-03-03T00:48:26;101234.53;;;5.93;60.83
12182;BME280;6154;51.550;12.138;2023-03-03T00:50:58;101223.06;;;5.95;60.93
12182;BME280;6154;51.550;12.138;2023-03-03T00:53:29;101221.34;;;5.94;60.97
12182;BME280;6154;51.550;12.138;2023-03-03T00:55:57;101218.66;;;5.97;60.67
12182;BME280;6154;51.550;12.138;2023-03-03T00:58:30;101226.59;;;5.94;61.21
12182;BME280;6154;51.550;12.138;2023-03-03T01:01:04;101219.69;;;5.89;61.27
12182;BME280;6154;51.550;12.138;2023-03-03T01:03:33;101209.41;;;5.78;61.96
12182;BME280;6154;51.550;12.138;2023-03-03T01:06:01;101225.34;;;5.70;62.05
12182;BME280;6154;51.550;12.138;2023-03-03T01:08:32;101227.19;;;5.67;62.62
12182;BME280;6154;51.550;12.138;2023-03-03T01:11:04;101222.59;;;5.76;61.59
12182;BME280;6154;51.550;12.138;2023-03-03T01:13:34;101215.94;;;5.60;62.43
12182;BME280;6154;51.550;12.138;2023-03-03T01:16:04;101210.25;;;5.82;61.09
12182;BME280;6154;51.550;12.138;2023-03-03T01:18:34;101217.91;;;5.89;60.44
12182;BME280;6154;51.550;12.138;2023-03-03T01:21:02;101223.06;;;5.95;60.31
12182;BME280;6154;51.550;12.138;2023-03-03T01:23:32;101213.34;;;5.99;60.03
12182;BME280;6154;51.550;12.138;2023-03-03T01:26:01;101215.03;;;6.03;59.95
12182;BME280;6154;51.550;12.138;2023-03-03T01:28:29;101217.50;;;6.09;59.75
12182;BME280;6154;51.550;12.138;2023-03-03T01:30:59;101216.72;;;6.05;60.27
12182;BME280;6154;51.550;12.138;2023-03-03T01:33:28;101211.62;;;5.98;60.49
12182;BME280;6154;51.550;12.138;2023-03-03T01:35:57;101214.25;;;5.98;60.61
12182;BME280;6154;51.550;12.138;2023-03-03T01:38:25;101208.88;;;6.04;60.12
12182;BME280;6154;51.550;12.138;2023-03-03T01:40:57;101207.78;;;6.11;59.60
12182;BME280;6154;51.550;12.138;2023-03-03T01:43:27;101204.34;;;6.09;59.99
12182;BME280;6154;51.550;12.138;2023-03-03T01:46:30;101203.41;;;6.13;59.90
12182;BME280;6154;51.550;12.138;2023-03-03T01:49:02;101213.19;;;6.07;61.04
12182;BME280;6154;51.550;12.138;2023-03-03T01:51:35;101204.50;;;6.03;60.87
12182;BME280;6154;51.550;12.138;2023-03-03T01:54:06;101209.81;;;6.00;61.28
12182;BME280;6154;51.550;12.138;2023-03-03T01:56:40;101201.03;;;6.01;61.01
12182;BME280;6154;51.550;12.138;2023-03-03T01:59:12;101206.63;;;5.86;62.28
12182;BME280;6154;51.550;12.138;2023-03-03T02:01:41;101212.44;;;6.01;60.79
12182;BME280;6154;51.550;12.138;2023-03-03T02:04:09;101222.34;;;5.87;62.07
12182;BME280;6154;51.550;12.138;2023-03-03T02:06:39;101221.16;;;6.03;60.91
12182;BME280;6154;51.550;12.138;2023-03-03T02:09:11;101226.53;;;5.97;61.54
12182;BME280;6154;51.550;12.138;2023-03-03T02:11:45;101219.22;;;6.10;60.69
12182;BME280;6154;51.550;12.138;2023-03-03T02:14:14;101212.09;;;6.15;60.69
12182;BME280;6154;51.550;12.138;2023-03-03T02:16:43;101217.44;;;6.12;60.69
12182;BME280;6154;51.550;12.138;2023-03-03T02:19:17;101216.56;;;6.12;60.84
12182;BME280;6154;51.550;12.138;2023-03-03T02:21:49;101228.53;;;5.85;63.15
12182;BME280;6154;51.550;12.138;2023-03-03T02:24:24;101226.03;;;5.78;63.56
12182;BME280;6154;51.550;12.138;2023-03-03T02:26:55;101224.03;;;5.93;62.26
12182;BME280;6154;51.550;12.138;2023-03-03T02:29:23;101220.44;;;5.95;61.84
12182;BME280;6154;51.550;12.138;2023-03-03T02:31:52;101224.97;;;5.87;62.88
12182;BME280;6154;51.550;12.138;2023-03-03T02:34:20;101221.31;;;5.96;61.92
12182;BME280;6154;51.550;12.138;2023-03-03T02:36:49;101214.13;;;6.04;61.22
12182;BME280;6154;51.550;12.138;2023-03-03T02:39:21;101207.19;;;6.00;61.49
12182;BME280;6154;51.550;12.138;2023-03-03T02:41:53;101200.69;;;6.16;60.35
12182;BME280;6154;51.550;12.138;2023-03-03T02:44:26;101200.72;;;6.15;60.58
12182;BME280;6154;51.550;12.138;2023-03-03T02:46:56;101198.88;;;6.18;60.40
12182;BME280;6154;51.550;12.138;2023-03-03T02:49:26;101183.97;;;6.19;60.36
12182;BME280;6154;51.550;12.138;2023-03-03T02:51:54;101185.75;;;6.18;60.38
12182;BME280;6154;51.550;12.138;2023-03-03T02:54:24;101189.84;;;5.94;61.69
12182;BME280;6154;51.550;12.138;2023-03-03T02:56:53;101188.06;;;5.95;61.23
12182;BME280;6154;51.550;12.138;2023-03-03T02:59:21;101193.06;;;6.05;60.49
12182;BME280;6154;51.550;12.138;2023-03-03T03:01:51;101188.66;;;6.06;60.48
12182;BME280;6154;51.550;12.138;2023-03-03T03:04:22;101195.47;;;5.76;62.31
12182;BME280;6154;51.550;12.138;2023-03-03T03:06:51;101204.22;;;5.76;62.80
12182;BME280;6154;51.550;12.138;2023-03-03T03:09:21;101199.81;;;5.77;63.11
12182;BME280;6154;51.550;12.138;2023-03-03T03:11:50;101197.06;;;5.83;62.61
12182;BME280;6154;51.550;12.138;2023-03-03T03:14:20;101193.16;;;5.62;63.50
12182;BME280;6154;51.550;12.138;2023-03-03T03:16:49;101187.62;;;5.74;62.88
12182;BME280;6154;51.550;12.138;2023-03-03T03:19:20;101193.75;;;5.75;62.91
12182;BME280;6154;51.550;12.138;2023-03-03T03:21:48;101198.72;;;5.87;62.10
12182;BME280;6154;51.550;12.138;2023-03-03T03:24:17;101202.84;;;5.99;61.40
12182;BME280;6154;51.550;12.138;2023-03-03T03:26:46;101201.94;;;6.01;61.57
12182;BME280;6154;51.550;12.138;2023-03-03T03:29:14;101201.81;;;6.06;61.23
12182;BME280;6154;51.550;12.138;2023-03-03T03:31:43;101197.66;;;5.96;61.89
12182;BME280;6154;51.550;12.138;2023-03-03T03:34:11;101195.41;;;5.79;62.63
12182;BME280;6154;51.550;12.138;2023-03-03T03:36:41;101196.03;;;5.92;61.85
12182;BME280;6154;51.550;12.138;2023-03-03T03:39:10;101187.59;;;5.76;62.42
12182;BME280;6154;51.550;12.138;2023-03-03T03:41:38;101191.84;;;5.82;61.97
12182;BME280;6154;51.550;12.138;2023-03-03T03:44:07;101194.75;;;5.69;62.56
12182;BME280;6154;51.550;12.138;2023-03-03T03:46:35;101199.87;;;5.75;62.50
12182;BME280;6154;51.550;12.138;2023-03-03T03:49:04;101204.00;;;5.86;61.67
12182;BME280;6154;51.550;12.138;2023-03-03T03:51:32;101210.25;;;5.82;61.77
12182;BME280;6154;51.550;12.138;2023-03-03T03:54:06;101213.81;;;5.77;61.98
12182;BME280;6154;51.550;12.138;2023-03-03T03:56:34;101206.72;;;5.83;61.80
12182;BME280;6154;51.550;12.138;2023-03-03T03:59:05;101214.59;;;5.81;61.76
12182;BME280;6154;51.550;12.138;2023-03-03T04:01:34;101217.91;;;5.89;61.26
12182;BME280;6154;51.550;12.138;2023-03-03T04:04:02;101221.16;;;5.63;62.83
12182;BME280;6154;51.550;12.138;2023-03-03T04:06:31;101218.25;;;5.75;62.26
12182;BME280;6154;51.550;12.138;2023-03-03T04:08:59;101220.78;;;5.78;62.01
12182;BME280;6154;51.550;12.138;2023-03-03T04:11:29;101228.53;;;5.85;61.66
12182;BME280;6154;51.550;12.138;2023-03-03T04:13:57;101232.91;;;5.86;61.79
12182;BME280;6154;51.550;12.138;2023-03-03T04:16:25;101233.22;;;5.70;62.40
12182;BME280;6154;51.550;12.138;2023-03-03T04:18:54;101233.56;;;5.55;62.91
12182;BME280;6154;51.550;12.138;2023-03-03T04:21:23;101234.72;;;5.42;63.68
12182;BME280;6154;51.550;12.138;2023-03-03T04:23:52;101235.84;;;5.29;64.12
12182;BME280;6154;51.550;12.138;2023-03-03T04:26:20;101236.53;;;5.38;63.60
12182;BME280;6154;51.550;12.138;2023-03-03T04:28:49;101232.34;;;5.30;64.09
12182;BME280;6154;51.550;12.138;2023-03-03T04:31:18;101229.38;;;5.03;65.30
12182;BME280;6154;51.550;12.138;2023-03-03T04:33:47;101226.75;;;5.46;63.25
12182;BME280;6154;51.550;12.138;2023-03-03T04:36:15;101222.06;;;5.62;62.16
12182;BME280;6154;51.550;12.138;2023-03-03T04:38:44;101233.22;;;5.72;61.76
12182;BME280;6154;51.550;12.138;2023-03-03T04:41:12;101223.53;;;5.74;61.73
12182;BME280;6154;51.550;12.138;2023-03-03T04:43:40;101222.59;;;5.76;61.51
12182;BME280;6154;51.550;12.138;2023-03-03T04:46:11;101233.87;;;5.82;61.09
12182;BME280;6154;51.550;12.138;2023-03-03T04:48:40;101232.53;;;5.62;62.33
12182;BME280;6154;51.550;12.138;2023-03-03T04:51:09;101234.13;;;5.69;61.79
12182;BME280;6154;51.550;12.138;2023-03-03T04:53:37;101243.72;;;5.72;61.64
12182;BME280;6154;51.550;12.138;2023-03-03T04:56:06;101244.19;;;5.49;62.30
12182;BME280;6154;51.550;12.138;2023-03-03T04:58:34;101252.69;;;5.60;62.03
12182;BME280;6154;51.550;12.138;2023-03-03T05:01:03;101250.97;;;5.59;62.14
12182;BME280;6154;51.550;12.138;2023-03-03T05:03:33;101244.00;;;5.58;62.00
12182;BME280;6154;51.550;12.138;2023-03-03T05:06:01;101246.66;;;5.57;61.96
12182;BME280;6154;51.550;12.138;2023-03-03T05:08:29;101253.50;;;5.64;61.52
12182;BME280;6154;51.550;12.138;2023-03-03T05:10:57;101240.34;;;5.65;61.17
12182;BME280;6154;51.550;12.138;2023-03-03T05:13:25;101241.25;;;5.64;61.23
12182;BME280;6154;51.550;12.138;2023-03-03T05:15:54;101232.44;;;5.67;60.86
12182;BME280;6154;51.550;12.138;2023-03-03T05:18:24;101237.88;;;5.58;61.60
12182;BME280;6154;51.550;12.138;2023-03-03T05:20:54;101235.97;;;5.66;61.06
12182;BME280;6154;51.550;12.138;2023-03-03T05:23:22;101229.22;;;5.54;61.55
12182;BME280;6154;51.550;12.138;2023-03-03T05:25:51;101225.66;;;5.57;61.58
12182;BME280;6154;51.550;12.138;2023-03-03T05:28:19;101236.03;;;5.63;61.37
12182;BME280;6154;51.550;12.138;2023-03-03T05:30:47;101230.59;;;5.70;60.98
12182;BME280;6154;51.550;12.138;2023-03-03T05:33:16;101233.09;;;5.76;60.57
12182;BME280;6154;51.550;12.138;2023-03-03T05:35:44;101230.28;;;5.86;60.22
12182;BME280;6154;51.550;12.138;2023-03-03T05:38:14;101236.50;;;5.80;60.86
12182;BME280;6154;51.550;12.138;2023-03-03T05:40:42;101239.94;;;5.84;60.40
12182;BME280;6154;51.550;12.138;2023-03-03T05:43:11;101229.53;;;5.79;61.11
12182;BME280;6154;51.550;12.138;2023-03-03T05:45:39;101227.84;;;5.76;60.87
12182;BME280;6154;51.550;12.138;2023-03-03T05:48:07;101236.63;;;5.75;61.06
12182;BME280;6154;51.550;12.138;2023-03-03T05:50:37;101231.38;;;5.75;61.06
12182;BME280;6154;51.550;12.138;2023-03-03T05:53:06;101242.78;;;5.74;61.45
12182;BME280;6154;51.550;12.138;2023-03-03T05:55:35;101239.88;;;5.87;60.69
12182;BME280;6154;51.550;12.138;2023-03-03T05:58:03;101234.78;;;5.79;60.85
12182;BME280;6154;51.550;12.138;2023-03-03T06:00:31;101248.06;;;5.73;61.21
12182;BME280;6154;51.550;12.138;2023-03-03T06:02:59;101250.72;;;5.71;60.76
12182;BME280;6154;51.550;12.138;2023-03-03T06:05:28;101248.72;;;5.83;60.07
12182;BME280;6154;51.550;12.138;2023-03-03T06:07:56;101253.25;;;5.76;60.71
12182;BME280;6154;51.550;12.138;2023-03-03T06:10:24;101250.37;;;5.87;60.10
12182;BME280;6154;51.550;12.138;2023-03-03T06:12:55;101251.19;;;5.92;60.14
12182;BME280;6154;51.550;12.138;2023-03-03T06:15:24;101243.41;;;5.86;60.56
12182;BME280;6154;51.550;12.138;2023-03-03T06:17:52;101234.38;;;5.99;59.80
12182;BME280;6154;51.550;12.138;2023-03-03T06:20:20;101239.69;;;5.96;59.81
12182;BME280;6154;51.550;12.138;2023-03-03T06:22:49;101245.66;;;6.04;59.48
12182;BME280;6154;51.550;12.138;2023-03-03T06:25:17;101248.16;;;6.09;59.31
12182;BME280;6154;51.550;12.138;2023-03-03T06:27:45;101254.44;;;6.03;59.77
12182;BME280;6154;51.550;12.138;2023-03-03T06:30:15;101250.03;;;6.03;59.48
12182;BME280;6154;51.550;12.138;2023-03-03T06:32:44;101253.56;;;6.01;59.66
12182;BME280;6154;51.550;12.138;2023-03-03T06:35:13;101260.63;;;5.99;59.71
12182;BME280;6154;51.550;12.138;2023-03-03T06:37:41;101258.16;;;5.93;60.35
12182;BME280;6154;51.550;12.138;2023-03-03T06:40:10;101271.91;;;6.04;59.70
12182;BME280;6154;51.550;12.138;2023-03-03T06:42:39;101270.03;;;6.09;59.41
12182;BME280;6154;51.550;12.138;2023-03-03T06:45:08;101285.91;;;6.04;60.04
12182;BME280;6154;51.550;12.138;2023-03-03T06:47:38;101287.66;;;6.05;60.09
12182;BME280;6154;51.550;12.138;2023-03-03T06:50:07;101295.69;;;5.98;60.51
12182;BME280;6154;51.550;12.138;2023-03-03T06:52:36;101288.38;;;6.11;59.84
12182;BME280;6154;51.550;12.138;2023-03-03T06:55:11;101298.94;;;6.09;60.16
12182;BME280;6154;51.550;12.138;2023-03-03T06:57:40;101288.22;;;6.18;59.63
12182;BME280;6154;51.550;12.138;2023-03-03T07:00:16;101294.22;;;6.25;59.57
12182;BME280;6154;51.550;12.138;2023-03-03T07:02:52;101297.69;;;6.25;59.80
12182;BME280;6154;51.550;12.138;2023-03-03T07:05:25;101292.38;;;6.28;59.62
12182;BME280;6154;51.550;12.138;2023-03-03T07:07:55;101294.94;;;6.31;59.46
12182;BME280;6154;51.550;12.138;2023-03-03T07:10:27;101296.53;;;6.37;59.38
12182;BME280;6154;51.550;12.138;2023-03-03T07:13:01;101295.50;;;6.44;59.35
12182;BME280;6154;51.550;12.138;2023-03-03T07:15:37;101296.44;;;6.42;59.64
12182;BME280;6154;51.550;12.138;2023-03-03T07:18:22;101299.81;;;6.47;59.58
12182;BME280;6154;51.550;12.138;2023-03-03T07:20:52;101287.13;;;6.64;59.40
12182;BME280;6154;51.550;12.138;2023-03-03T07:23:22;101295.03;;;6.64;59.20
12182;BME280;6154;51.550;12.138;2023-03-03T07:25:51;101307.22;;;6.67;59.24
12182;BME280;6154;51.550;12.138;2023-03-03T07:28:22;101304.59;;;6.67;59.20
12182;BME280;6154;51.550;12.138;2023-03-03T07:30:51;101297.47;;;6.72;59.03
12182;BME280;6154;51.550;12.138;2023-03-03T07:33:25;101304.37;;;6.76;59.02
12182;BME280;6154;51.550;12.138;2023-03-03T07:35:56;101306.69;;;6.88;58.80
12182;BME280;6154;51.550;12.138;2023-03-03T07:38:30;101311.78;;;6.94;58.84
12182;BME280;6154;51.550;12.138;2023-03-03T07:41:00;101317.56;;;6.74;59.66
12182;BME280;6154;51.550;12.138;2023-03-03T07:43:34;101328.66;;;6.51;60.70
12182;BME280;6154;51.550;12.138;2023-03-03T07:46:19;101331.50;;;6.78;59.68
12182;BME280;6154;51.550;12.138;2023-03-03T07:48:51;101333.47;;;6.68;60.49
12182;BME280;6154;51.550;12.138;2023-03-03T07:51:22;101338.25;;;6.51;60.57
12182;BME280;6154;51.550;12.138;2023-03-03T07:53:52;101336.91;;;6.72;60.18
12182;BME280;6154;51.550;12.138;2023-03-03T07:56:27;101329.63;;;6.81;60.14
12182;BME280;6154;51.550;12.138;2023-03-03T07:58:57;101333.88;;;6.87;59.94
12182;BME280;6154;51.550;12.138;2023-03-03T08:01:37;101329.06;;;7.04;59.24
12182;BME280;6154;51.550;12.138;2023-03-03T08:04:20;101323.44;;;7.18;59.49
12182;BME280;6154;51.550;12.138;2023-03-03T08:06:51;101332.72;;;7.31;59.32
12182;BME280;6154;51.550;12.138;2023-03-03T08:09:35;101330.38;;;7.22;59.20
12182;BME280;6154;51.550;12.138;2023-03-03T08:12:38;101322.13;;;7.34;59.40
12182;BME280;6154;51.550;12.138;2023-03-03T08:15:18;101325.37;;;7.44;59.31
12182;BME280;6154;51.550;12.138;2023-03-03T08:17:47;101313.78;;;7.49;58.87
12182;BME280;6154;51.550;12.138;2023-03-03T08:20:41;101326.16;;;7.47;59.04
12182;BME280;6154;51.550;12.138;2023-03-03T08:23:11;101325.75;;;7.61;59.45
12182;BME280;6154;51.550;12.138;2023-03-03T08:25:40;101335.44;;;7.61;58.76
12182;BME280;6154;51.550;12.138;2023-03-03T08:28:09;101342.41;;;7.63;58.84
12182;BME280;6154;51.550;12.138;2023-03-03T08:30:37;101336.28;;;7.63;58.81
12182;BME280;6154;51.550;12.138;2023-03-03T08:33:06;101344.78;;;7.71;58.64
12182;BME280;6154;51.550;12.138;2023-03-03T08:35:35;101352.69;;;7.71;58.78
12182;BME280;6154;51.550;12.138;2023-03-03T08:38:03;101337.63;;;7.76;58.65
12182;BME280;6154;51.550;12.138;2023-03-03T08:40:32;101347.97;;;7.84;58.83
12182;BME280;6154;51.550;12.138;2023-03-03T08:43:01;101336.31;;;7.92;58.57
12182;BME280;6154;51.550;12.138;2023-03-03T08:45:29;101338.09;;;7.90;58.64
12182;BME280;6154;51.550;12.138;2023-03-03T08:47:58;101346.03;;;7.89;58.57
12182;BME280;6154;51.550;12.138;2023-03-03T08:50:27;101345.37;;;7.82;58.69
12182;BME280;6154;51.550;12.138;2023-03-03T08:52:57;101342.44;;;7.93;58.50
12182;BME280;6154;51.550;12.138;2023-03-03T08:55:25;101337.81;;;7.99;58.37
12182;BME280;6154;51.550;12.138;2023-03-03T08:57:53;101341.19;;;8.04;58.34
12182;BME280;6154;51.550;12.138;2023-03-03T09:00:22;101345.00;;;7.94;58.51
12182;BME280;6154;51.550;12.138;2023-03-03T09:02:51;101356.19;;;8.02;58.36
12182;BME280;6154;51.550;12.138;2023-03-03T09:05:20;101350.94;;;8.02;58.37
12182;BME280;6154;51.550;12.138;2023-03-03T09:07:49;101353.56;;;8.02;58.41
12182;BME280;6154;51.550;12.138;2023-03-03T09:10:22;101353.09;;;8.18;58.30
12182;BME280;6154;51.550;12.138;2023-03-03T09:12:57;101355.44;;;8.27;58.33
12182;BME280;6154;51.550;12.138;2023-03-03T09:15:29;101347.38;;;8.33;58.28
12182;BME280;6154;51.550;12.138;2023-03-03T09:17:58;101344.47;;;8.42;58.09
12182;BME280;6154;51.550;12.138;2023-03-03T09:20:31;101346.91;;;8.48;58.04
12182;BME280;6154;51.550;12.138;2023-03-03T09:23:29;101354.12;;;8.43;58.08
12182;BME280;6154;51.550;12.138;2023-03-03T09:26:17;101356.25;;;8.29;58.74
12182;BME280;6154;51.550;12.138;2023-03-03T09:28:49;101360.09;;;8.19;58.82
12182;BME280;6154;51.550;12.138;2023-03-03T09:31:24;101349.47;;;8.22;58.45
12182;BME280;6154;51.550;12.138;2023-03-03T09:33:53;101351.72;;;8.34;58.38
12182;BME280;6154;51.550;12.138;2023-03-03T09:36:26;101357.75;;;8.39;58.12
12182;BME280;6154;51.550;12.138;2023-03-03T09:38:56;101354.00;;;8.46;58.19
12182;BME280;6154;51.550;12.138;2023-03-03T09:41:58;101362.50;;;8.56;58.06
12182;BME280;6154;51.550;12.138;2023-03-03T09:44:38;101346.50;;;8.60;58.23
12182;BME280;6154;51.550;12.138;2023-03-03T09:47:29;101346.81;;;8.51;58.22
12182;BME280;6154;51.550;12.138;2023-03-03T09:50:10;101347.28;;;8.64;58.57
12182;BME280;6154;51.550;12.138;2023-03-03T09:52:47;101333.84;;;8.72;58.09
12182;BME280;6154;51.550;12.138;2023-03-03T09:55:29;101343.34;;;8.77;58.22
12182;BME280;6154;51.550;12.138;2023-03-03T09:58:18;101349.28;;;8.84;58.04
12182;BME280;6154;51.550;12.138;2023-03-03T10:00:58;101341.66;;;8.75;57.83
12182;BME280;6154;51.550;12.138;2023-03-03T10:03:55;101334.63;;;8.47;58.22
12182;BME280;6154;51.550;12.138;2023-03-03T10:06:31;101346.63;;;8.57;58.18
12182;BME280;6154;51.550;12.138;2023-03-03T10:11:55;101351.41;;;8.73;57.90
12182;BME280;6154;51.550;12.138;2023-03-03T10:14:45;101356.59;;;8.48;57.98
12182;BME280;6154;51.550;12.138;2023-03-03T10:17:26;101358.47;;;8.99;57.91
12182;BME280;6154;51.550;12.138;2023-03-03T10:20:19;101350.44;;;8.75;57.45
12182;BME280;6154;51.550;12.138;2023-03-03T10:22:54;101356.66;;;9.26;57.81
12182;BME280;6154;51.550;12.138;2023-03-03T10:25:34;101349.44;;;9.56;57.69
12182;BME280;6154;51.550;12.138;2023-03-03T10:28:30;101344.56;;;9.68;56.53
12182;BME280;6154;51.550;12.138;2023-03-03T10:31:09;101346.22;;;9.71;55.94
12182;BME280;6154;51.550;12.138;2023-03-03T10:33:48;101351.13;;;9.82;56.12
12182;BME280;6154;51.550;12.138;2023-03-03T10:36:33;101348.94;;;9.69;56.37
12182;BME280;6154;51.550;12.138;2023-03-03T10:39:12;101348.34;;;9.61;56.14
12182;BME280;6154;51.550;12.138;2023-03-03T10:42:04;101350.19;;;9.59;56.29
12182;BME280;6154;51.550;12.138;2023-03-03T10:44:47;101346.72;;;9.34;56.19
12182;BME280;6154;51.550;12.138;2023-03-03T10:47:30;101345.81;;;9.58;56.63
12182;BME280;6154;51.550;12.138;2023-03-03T10:50:10;101346.41;;;9.41;56.34
12182;BME280;6154;51.550;12.138;2023-03-03T10:52:46;101350.91;;;9.14;56.23
12182;BME280;6154;51.550;12.138;2023-03-03T10:55:34;101353.00;;;9.30;56.51
12182;BME280;6154;51.550;12.138;2023-03-03T10:58:27;101351.75;;;9.15;56.95
12182;BME280;6154;51.550;12.138;2023-03-03T11:01:04;101354.41;;;9.15;56.78
12182;BME280;6154;51.550;12.138;2023-03-03T11:06:42;101354.16;;;9.21;56.73
12182;BME280;6154;51.550;12.138;2023-03-03T11:09:25;101352.94;;;9.06;56.90
12182;BME280;6154;51.550;12.138;2023-03-03T11:12:03;101345.56;;;9.16;56.60
12182;BME280;6154;51.550;12.138;2023-03-03T11:14:39;101354.47;;;9.13;56.86
12182;BME280;6154;51.550;12.138;2023-03-03T11:17:18;101346.03;;;9.27;56.68
12182;BME280;6154;51.550;12.138;2023-03-03T11:19:57;101349.78;;;8.95;57.05
12182;BME280;6154;51.550;12.138;2023-03-03T11:22:36;101351.22;;;9.05;56.88
12182;BME280;6154;51.550;12.138;2023-03-03T11:25:18;101345.25;;;9.25;56.96
12182;BME280;6154;51.550;12.138;2023-03-03T11:28:03;101340.97;;;9.46;56.81
12182;BME280;6154;51.550;12.138;2023-03-03T11:30:52;101342.75;;;9.45;56.50
12182;BME280;6154;51.550;12.138;2023-03-03T11:33:31;101343.59;;;8.96;57.34
12182;BME280;6154;51.550;12.138;2023-03-03T11:36:09;101340.41;;;8.86;57.63
12182;BME280;6154;51.550;12.138;2023-03-03T11:38:45;101332.84;;;9.02;57.42
12182;BME280;6154;51.550;12.138;2023-03-03T11:41:31;101336.44;;;8.73;58.09
12182;BME280;6154;51.550;12.138;2023-03-03T11:44:09;101336.03;;;8.85;57.89
12182;BME280;6154;51.550;12.138;2023-03-03T11:46:44;101338.00;;;8.79;57.79
12182;BME280;6154;51.550;12.138;2023-03-03T11:49:17;101341.66;;;9.01;57.56
12182;BME280;6154;51.550;12.138;2023-03-03T11:51:57;101335.59;;;9.24;57.56
12182;BME280;6154;51.550;12.138;2023-03-03T11:54:33;101331.87;;;9.30;57.18
12182;BME280;6154;51.550;12.138;2023-03-03T11:57:15;101328.53;;;9.25;57.20
12182;BME280;6154;51.550;12.138;2023-03-03T11:59:50;101335.47;;;9.27;57.18
12182;BME280;6154;51.550;12.138;2023-03-03T12:02:35;101331.81;;;9.06;57.37
12182;BME280;6154;51.550;12.138;2023-03-03T12:05:14;101339.31;;;9.18;57.29
12182;BME280;6154;51.550;12.138;2023-03-03T12:08:01;101322.00;;;9.35;57.06
12182;BME280;6154;51.550;12.138;2023-03-03T12:10:37;101325.78;;;9.28;57.00
12182;BME280;6154;51.550;12.138;2023-03-03T12:13:13;101324.13;;;9.25;56.91
12182;BME280;6154;51.550;12.138;2023-03-03T12:15:53;101317.66;;;9.34;56.72
12182;BME280;6154;51.550;12.138;2023-03-03T12:18:34;101318.81;;;9.50;56.46
12182;BME280;6154;51.550;12.138;2023-03-03T12:21:17;101312.94;;;9.42;56.48
12182;BME280;6154;51.550;12.138;2023-03-03T12:24:04;101316.66;;;9.36;56.53
12182;BME280;6154;51.550;12.138;2023-03-03T12:26:42;101308.88;;;9.57;56.68
12182;BME280;6154;51.550;12.138;2023-03-03T12:29:24;101314.50;;;9.47;56.76
12182;BME280;6154;51.550;12.138;2023-03-03T12:32:00;101315.50;;;9.68;56.56
12182;BME280;6154;51.550;12.138;2023-03-03T12:34:35;101314.69;;;9.66;56.36
12182;BME280;6154;51.550;12.138;2023-03-03T12:37:16;101307.31;;;9.51;56.50
12182;BME280;6154;51.550;12.138;2023-03-03T12:39:58;101309.00;;;9.29;56.72
12182;BME280;6154;51.550;12.138;2023-03-03T12:42:41;101304.13;;;9.66;56.44
12182;BME280;6154;51.550;12.138;2023-03-03T12:45:27;101300.66;;;9.41;56.57
12182;BME280;6154;51.550;12.138;2023-03-03T12:48:06;101303.53;;;9.35;56.69
12182;BME280;6154;51.550;12.138;2023-03-03T12:50:46;101298.25;;;9.35;56.68
12182;BME280;6154;51.550;12.138;2023-03-03T12:53:30;101295.53;;;9.36;56.45
12182;BME280;6154;51.550;12.138;2023-03-03T12:56:05;101287.22;;;9.47;56.47
12182;BME280;6154;51.550;12.138;2023-03-03T12:58:42;101289.78;;;9.25;56.69
12182;BME280;6154;51.550;12.138;2023-03-03T13:01:27;101288.81;;;9.51;56.40
12182;BME280;6154;51.550;12.138;2023-03-03T13:04:04;101283.66;;;9.48;56.39
12182;BME280;6154;51.550;12.138;2023-03-03T13:06:38;101281.03;;;9.71;56.35
12182;BME280;6154;51.550;12.138;2023-03-03T13:09:18;101280.13;;;9.72;56.23
12182;BME280;6154;51.550;12.138;2023-03-03T13:12:02;101286.44;;;9.68;55.97
12182;BME280;6154;51.550;12.138;2023-03-03T13:14:37;101282.38;;;9.83;55.86
12182;BME280;6154;51.550;12.138;2023-03-03T13:17:17;101280.34;;;10.12;55.53
12182;BME280;6154;51.550;12.138;2023-03-03T13:19:51;101289.78;;;10.19;55.26
12182;BME280;6154;51.550;12.138;2023-03-03T13:22:31;101286.69;;;10.07;55.22
12182;BME280;6154;51.550;12.138;2023-03-03T13:25:06;101293.38;;;9.94;55.43
12182;BME280;6154;51.550;12.138;2023-03-03T13:27:39;101294.03;;;9.54;55.88
12182;BME280;6154;51.550;12.138;2023-03-03T13:30:16;101286.69;;;9.62;56.15
12182;BME280;6154;51.550;12.138;2023-03-03T13:32:51;101281.94;;;9.70;55.73
12182;BME280;6154;51.550;12.138;2023-03-03T13:35:31;101280.56;;;9.84;55.75
12182;BME280;6154;51.550;12.138;2023-03-03T13:38:01;101280.22;;;9.46;56.02